Time,TemperatureF,DewpointF,PressureIn,WindDirection,WindDirectionDegrees,WindSpeedMPH,WindSpeedGustMPH,Humidity,HourlyPrecipIn,Conditions,Clouds,dailyrainin,SoftwareType,DateUTC
2013-10-03 00:14:00,57.0,52.0,30.10,NE,45,1.0,-999.0,82,-99.99,,,-99.99,,2013-10-03 04:14:00,
2013-10-03 00:24:00,57.0,52.0,30.10,ENE,78,3.0,-999.0,83,-99.99,,,-99.99,,2013-10-03 04:24:00,
2013-10-03 00:44:00,58.0,53.0,30.10,ENE,78,1.0,-999.0,83,-99.99,,,-99.99,,2013-10-03 04:44:00,
2013-10-03 00:53:00,58.0,53.0,30.09,ENE,65,2.0,-999.0,83,-99.99,,,-99.99,,2013-10-03 04:53:00,
2013-10-03 01:04:00,58.0,53.0,30.09,ENE,65,2.0,-999.0,83,-99.99,,,-99.99,,2013-10-03 05:04:00,
2013-10-03 01:23:00,57.0,53.0,30.08,ENE,75,4.0,-999.0,85,-99.99,,,-99.99,,2013-10-03 05:23:00,
2013-10-03 01:43:00,57.0,53.0,30.08,ENE,65,6.0,-999.0,85,-99.99,,,-99.99,,2013-10-03 05:43:00,
2013-10-03 01:52:00,56.0,52.0,30.09,ENE,67,1.0,-999.0,87,-99.99,,,-99.99,,2013-10-03 05:52:00,
2013-10-03 02:12:00,56.0,52.0,30.09,ENE,67,0.0,-999.0,88,-99.99,,,-99.99,,2013-10-03 06:12:00,
2013-10-03 02:22:00,57.0,53.0,30.09,ENE,67,0.0,-999.0,87,-99.99,,,-99.99,,2013-10-03 06:22:00,
2013-10-03 02:42:00,57.0,53.0,30.08,ENE,67,0.0,-999.0,86,-99.99,,,-99.99,,2013-10-03 06:42:00,
2013-10-03 02:52:00,57.0,53.0,30.08,ENE,67,1.0,-999.0,86,-99.99,,,-99.99,,2013-10-03 06:52:00,
2013-10-03 03:11:00,57.0,53.0,30.08,ENE,67,2.0,-999.0,86,-99.99,,,-99.99,,2013-10-03 07:11:00,
2013-10-03 03:22:00,57.0,53.0,30.07,ENE,68,3.0,-999.0,87,-99.99,,,-99.99,,2013-10-03 07:22:00,
2013-10-03 03:52:00,57.0,53.0,30.07,ENE,76,4.0,-999.0,87,-99.99,,,-99.99,,2013-10-03 07:52:00,
2013-10-03 04:12:00,57.0,53.0,30.07,East,86,4.0,-999.0,86,-99.99,,,-99.99,,2013-10-03 08:12:00,
2013-10-03 04:22:00,57.0,53.0,30.07,East,86,3.0,-999.0,86,-99.99,,,-99.99,,2013-10-03 08:22:00,
2013-10-03 04:42:00,57.0,53.0,30.07,East,86,1.0,-999.0,85,-99.99,,,-99.99,,2013-10-03 08:42:00,
2013-10-03 04:52:00,57.0,53.0,30.07,East,86,0.0,-999.0,87,-99.99,,,-99.99,,2013-10-03 08:52:00,
2013-10-03 05:12:00,57.0,53.0,30.07,East,86,0.0,-999.0,86,-99.99,,,-99.99,,2013-10-03 09:12:00,
2013-10-03 05:22:00,57.0,53.0,30.07,East,86,0.0,-999.0,85,-99.99,,,-99.99,,2013-10-03 09:22:00,
2013-10-03 05:53:00,56.0,52.0,30.07,East,86,0.0,-999.0,85,-99.99,,,-99.99,,2013-10-03 09:53:00,
2013-10-03 06:23:00,56.0,51.0,30.07,East,86,1.0,-999.0,83,-99.99,,,-99.99,,2013-10-03 10:23:00,
2013-10-03 06:52:00,57.0,52.0,30.07,East,86,0.0,-999.0,84,-99.99,,,-99.99,,2013-10-03 10:52:00,
2013-10-03 07:12:00,56.0,52.0,30.07,East,86,0.0,-999.0,86,-99.99,,,-99.99,,2013-10-03 11:12:00,
2013-10-03 07:23:00,56.0,52.0,30.07,East,86,0.0,-999.0,87,-99.99,,,-99.99,,2013-10-03 11:23:00,
2013-10-03 07:52:00,56.0,52.0,30.08,East,86,0.0,-999.0,88,-99.99,,,-99.99,,2013-10-03 11:52:00,
2013-10-03 08:22:00,56.0,53.0,30.08,East,86,0.0,-999.0,89,-99.99,,,-99.99,,2013-10-03 12:22:00,
2013-10-03 08:42:00,57.0,53.0,30.09,East,86,0.0,-999.0,88,-99.99,,,-99.99,,2013-10-03 12:42:00,
2013-10-03 08:52:00,57.0,53.0,30.09,East,86,0.0,-999.0,87,-99.99,,,-99.99,,2013-10-03 12:52:00,
2013-10-03 09:11:00,58.0,54.0,30.09,East,86,0.0,-999.0,86,-99.99,,,-99.99,,2013-10-03 13:11:00,
2013-10-03 09:22:00,59.0,54.0,30.09,East,86,0.0,-999.0,84,-99.99,,,-99.99,,2013-10-03 13:22:00,
2013-10-03 09:52:00,60.0,55.0,30.09,East,86,1.0,-999.0,83,-99.99,,,-99.99,,2013-10-03 13:52:00,
2013-10-03 10:11:00,60.0,55.0,30.09,East,86,1.0,-999.0,85,-99.99,,,-99.99,,2013-10-03 14:11:00,
2013-10-03 10:22:00,61.0,56.0,30.10,East,83,2.0,-999.0,85,-99.99,,,-99.99,,2013-10-03 14:22:00,
2013-10-03 10:52:00,62.0,56.0,30.09,ENE,71,1.0,-999.0,81,-99.99,,,-99.99,,2013-10-03 14:52:00,
2013-10-03 11:11:00,62.0,56.0,30.09,ENE,71,1.0,-999.0,80,-99.99,,,-99.99,,2013-10-03 15:11:00,
2013-10-03 11:22:00,62.0,56.0,30.09,ENE,69,1.0,-999.0,81,-99.99,,,-99.99,,2013-10-03 15:22:00,
2013-10-03 11:43:00,62.0,56.0,30.09,NE,55,2.0,-999.0,80,-99.99,,,-99.99,,2013-10-03 15:43:00,
2013-10-03 11:53:00,64.0,56.0,30.08,NE,55,1.0,-999.0,75,-99.99,,,-99.99,,2013-10-03 15:53:00,
2013-10-03 12:13:00,64.0,55.0,30.07,East,85,2.0,-999.0,72,-99.99,,,-99.99,,2013-10-03 16:13:00,
2013-10-03 12:23:00,66.0,56.0,30.07,East,86,2.0,-999.0,69,-99.99,,,-99.99,,2013-10-03 16:23:00,
2013-10-03 12:42:00,67.0,56.0,30.07,ENE,76,2.0,-999.0,68,-99.99,,,-99.99,,2013-10-03 16:42:00,
2013-10-03 12:53:00,65.0,54.0,30.07,ENE,71,5.0,-999.0,67,-99.99,,,-99.99,,2013-10-03 16:53:00,
2013-10-03 13:12:00,66.0,54.0,30.07,ENE,78,3.0,-999.0,66,-99.99,,,-99.99,,2013-10-03 17:12:00,
2013-10-03 13:22:00,66.0,55.0,30.06,ESE,123,3.0,-999.0,67,-99.99,,,-99.99,,2013-10-03 17:22:00,
2013-10-03 13:33:00,66.0,55.0,30.06,ESE,123,3.0,-999.0,67,-99.99,,,-99.99,,2013-10-03 17:33:00,
2013-10-03 13:42:00,66.0,55.0,30.06,ESE,123,3.0,-999.0,67,-99.99,,,-99.99,,2013-10-03 17:42:00,
2013-10-03 13:52:00,68.0,54.0,30.06,SSE,154,2.0,-999.0,62,-99.99,,,-99.99,,2013-10-03 17:52:00,
2013-10-03 14:12:00,68.0,55.0,30.05,SSE,150,4.0,-999.0,63,-99.99,,,-99.99,,2013-10-03 18:12:00,
2013-10-03 14:22:00,69.0,56.0,30.05,South,185,3.0,-999.0,64,-99.99,,,-99.99,,2013-10-03 18:22:00,
2013-10-03 14:42:00,69.0,55.0,30.04,South,179,1.0,-999.0,62,-99.99,,,-99.99,,2013-10-03 18:42:00,
2013-10-03 14:52:00,67.0,56.0,30.03,SSW,200,2.0,-999.0,67,-99.99,,,-99.99,,2013-10-03 18:52:00,
2013-10-03 15:11:00,67.0,57.0,30.03,South,188,3.0,-999.0,70,-99.99,,,-99.99,,2013-10-03 19:11:00,
2013-10-03 15:22:00,69.0,56.0,30.03,SW,230,4.0,-999.0,63,-99.99,,,-99.99,,2013-10-03 19:22:00,
2013-10-03 15:42:00,70.0,55.0,30.03,SSE,164,4.0,-999.0,60,-99.99,,,-99.99,,2013-10-03 19:42:00,
2013-10-03 15:52:00,71.0,57.0,30.02,SW,228,3.0,-999.0,62,-99.99,,,-99.99,,2013-10-03 19:52:00,
2013-10-03 16:12:00,68.0,56.0,30.02,SSE,167,4.0,-999.0,66,-99.99,,,-99.99,,2013-10-03 20:12:00,
2013-10-03 16:22:00,66.0,56.0,30.02,SW,215,5.0,-999.0,70,-99.99,,,-99.99,,2013-10-03 20:22:00,
2013-10-03 16:42:00,66.0,56.0,30.02,SSW,205,4.0,-999.0,71,-99.99,,,-99.99,,2013-10-03 20:42:00,
2013-10-03 16:52:00,67.0,57.0,30.02,South,189,3.0,-999.0,71,-99.99,,,-99.99,,2013-10-03 20:52:00,
2013-10-03 17:12:00,67.0,56.0,30.01,South,182,3.0,-999.0,69,-99.99,,,-99.99,,2013-10-03 21:12:00,
2013-10-03 17:22:00,65.0,55.0,30.02,SW,231,3.0,-999.0,70,-99.99,,,-99.99,,2013-10-03 21:22:00,
2013-10-03 17:43:00,64.0,55.0,30.02,SSE,155,3.0,-999.0,72,-99.99,,,-99.99,,2013-10-03 21:43:00,
2013-10-03 17:54:00,64.0,56.0,30.01,SSE,152,2.0,-999.0,74,-99.99,,,-99.99,,2013-10-03 21:54:00,
2013-10-03 18:13:00,63.0,56.0,30.01,SSE,168,2.0,-999.0,77,-99.99,,,-99.99,,2013-10-03 22:13:00,
2013-10-03 18:23:00,63.0,57.0,30.02,SSW,193,4.0,-999.0,80,-99.99,,,-99.99,,2013-10-03 22:23:00,
2013-10-03 18:43:00,63.0,56.0,30.02,South,179,4.0,-999.0,79,-99.99,,,-99.99,,2013-10-03 22:43:00,
2013-10-03 18:54:00,63.0,56.0,30.02,SW,217,5.0,-999.0,79,-99.99,,,-99.99,,2013-10-03 22:54:00,
2013-10-03 19:12:00,63.0,57.0,30.02,SSE,167,3.0,-999.0,80,-99.99,,,-99.99,,2013-10-03 23:12:00,
2013-10-03 19:22:00,62.0,57.0,30.02,South,179,4.0,-999.0,83,-99.99,,,-99.99,,2013-10-03 23:22:00,
2013-10-03 19:43:00,60.0,55.0,30.02,SW,219,5.0,-999.0,85,-99.99,,,-99.99,,2013-10-03 23:43:00,
2013-10-03 19:52:00,60.0,56.0,30.03,SW,216,4.0,-999.0,86,-99.99,,,-99.99,,2013-10-03 23:52:00,
2013-10-03 20:12:00,59.0,55.0,30.03,SSW,209,4.0,-999.0,86,-99.99,,,-99.99,,2013-10-04 00:12:00,
2013-10-03 20:22:00,59.0,55.0,30.03,SSW,213,5.0,-999.0,87,-99.99,,,-99.99,,2013-10-04 00:22:00,
2013-10-03 20:42:00,59.0,55.0,30.03,SW,222,3.0,-999.0,86,-99.99,,,-99.99,,2013-10-04 00:42:00,
2013-10-03 20:52:00,59.0,55.0,30.03,SW,218,4.0,-999.0,87,-99.99,,,-99.99,,2013-10-04 00:52:00,
2013-10-03 21:12:00,59.0,55.0,30.04,SW,217,5.0,-999.0,87,-99.99,,,-99.99,,2013-10-04 01:12:00,
2013-10-03 21:22:00,58.0,54.0,30.04,SW,217,3.0,-999.0,88,-99.99,,,-99.99,,2013-10-04 01:22:00,
2013-10-03 21:42:00,58.0,55.0,30.04,SW,234,4.0,-999.0,89,-99.99,,,-99.99,,2013-10-04 01:42:00,
2013-10-03 21:52:00,58.0,56.0,30.04,SW,234,3.0,-999.0,92,-99.99,,,-99.99,,2013-10-04 01:52:00,
2013-10-03 22:12:00,58.0,56.0,30.04,SW,234,2.0,-999.0,92,-99.99,,,-99.99,,2013-10-04 02:12:00,
2013-10-03 22:22:00,57.0,55.0,30.04,SW,234,0.0,-999.0,93,-99.99,,,-99.99,,2013-10-04 02:22:00,
2013-10-03 22:43:00,57.0,55.0,30.04,SW,234,0.0,-999.0,94,-99.99,,,-99.99,,2013-10-04 02:43:00,
2013-10-03 22:52:00,57.0,55.0,30.04,SW,234,0.0,-999.0,94,-99.99,,,-99.99,,2013-10-04 02:52:00,
2013-10-03 23:22:00,57.0,55.0,30.04,SW,231,4.0,-999.0,92,-99.99,,,-99.99,,2013-10-04 03:22:00,
2013-10-03 23:44:00,57.0,54.0,30.05,SW,222,4.0,-999.0,91,-99.99,,,-99.99,,2013-10-04 03:44:00,